Kenora Airport
CYQK : now visible

Airfield :











YOU CAN JOIN US ON...

 
LOGIN :

Register | Disclaimer

   EN    FR    IT 

 









Legend :    VFR   Marginal VFR   IFR   Intensive IFR   Very Intensive IFR
Visi :
Ceiling :
>= 8 km
>= 3000ft
5 to 8 km
1000 to 3000 ft
1500m to 5 km
500 to 1000 ft
800 to 1500m
200 to 500 ft
< 800m
< 200 ft
Symbols :   Thunderstorms  Fog  Heavy snow  Heavy precipitations  Wind > 20 kt







- Airport Elevation : 1332 ft
- IATA code : YQK


CYQK - Kenora

CURRENT METAR :
  • 211100Z 13004KT 20SM FEW090 FEW250 08/M00 A3017 RMK AC1CI1 SLP226

EXPIRED METARs :
  • 211000Z 09004KT 20SM FEW090 FEW250 09/M01 A3015 RMK AC1CI1 SLP217
  • 210900Z 08002KT 20SM SKC 07/00 A3014 RMK SLP217

TAF TAF CYQK
Valid from the 21 at 08:00 until the 21 at 20:00 UTC


210738Z 2108/2120 18005KT P6SM SKC
FM211700 13006KT P6SM FEW050
BECMG 2118/2120 09008KT RMK NXT FCST BY 211400Z
CZWG FIR / North America



MET'MAP, your aeronautical weather chart ! - Copyright ORBIFLY December 2007 - Disclaimer

ORBIFLY MET'MAP TEAM :

Programming & Development : Alexandra Zaïnal
Concept & Development : Baudouin d'Aumeries
Co-Development & Prog : Marc-Olivier Méhu
Technical & hardware support : Manuel Goepfert

Contact : metmap@orbifly.com




SOURCES & CREDITS :

   NOAA       Earth
Advisory